« Back
NWS Peachtree City, Ga » Text Product » AHN Terminal Aerodrome Forecast


Printer-friendly Version
Current Version              Previous Versions:   1  2  3  4  5  6  7  8  9  

Terminal Aerodrome Forecast

438
FTUS42 KFFC 281126
TAFAHN
TAF
KAHN 281126Z 2812/2912 30007KT P6SM SKC
     FM290300 34007KT P6SM SKC
     FM290600 01003KT P6SM SKC=

USA.gov is the U.S. government's official web portal to all federal, state and local government web resources and services.